Time;durP1;ratioP1;P1;durP2;ratioP2;P2;SDS_P1;SDS_P2;PMS_P1;PMS_P2;Temp;Humidity;BMP_temperature;BMP_pressure;BME280_temperature;BME280_humidity;BME280_pressure;Samples;Min_cycle;Max_cycle;Signal;HPM_P1;HPM_P2
2021/04/02 00:01:10;;;;;;;4.40;4.00;;;;;;;;;;5090884;28;20644;-83
2021/04/02 00:03:37;;;;;;;6.03;4.43;;;;;;;;;;5080538;28;20188;-83
2021/04/02 00:06:05;;;;;;;4.73;4.33;;;;;;;;;;5077136;28;20185;-83
2021/04/02 00:08:31;;;;;;;4.13;3.83;;;;;;;;;;5070444;28;20209;-82
2021/04/02 00:11:03;;;;;;;4.60;4.20;;;;;;;;;;5067110;28;20184;-83
2021/04/02 00:13:31;;;;;;;5.00;4.30;;;;;;;;;;5082055;28;20188;-84
2021/04/02 00:15:57;;;;;;;4.63;4.23;;;;;;;;;;5077475;28;20307;-83
2021/04/02 00:18:26;;;;;;;4.53;4.13;;;;;;;;;;5091396;28;20965;-85
2021/04/02 00:20:52;;;;;;;4.53;4.13;;;;;;;;;;5087547;28;20180;-83
2021/04/02 00:23:18;;;;;;;4.53;4.13;;;;;;;;;;5077397;28;20563;-83
2021/04/02 00:25:44;;;;;;;4.33;4.03;;;;;;;;;;5070557;28;20200;-83
2021/04/02 00:28:09;;;;;;;4.40;4.00;;;;;;;;;;5090872;28;20219;-84
2021/04/02 00:30:42;;;;;;;4.27;3.80;;;;;;;;;;5090831;28;20188;-84
2021/04/02 00:33:08;;;;;;;3.83;3.50;;;;;;;;;;5090697;28;20656;-84
2021/04/02 00:35:35;;;;;;;3.70;3.40;;;;;;;;;;5091608;28;20189;-85
2021/04/02 00:38:00;;;;;;;3.27;3.07;;;;;;;;;;5106110;28;20204;-83
2021/04/02 00:40:29;;;;;;;3.60;3.30;;;;;;;;;;5090544;28;20196;-83
2021/04/02 00:42:54;;;;;;;3.47;3.10;;;;;;;;;;5092523;28;20219;-83
2021/04/02 00:45:21;;;;;;;3.43;3.23;;;;;;;;;;5088786;28;20606;-83
2021/04/02 00:47:48;;;;;;;6.40;3.40;;;;;;;;;;5080856;28;20213;-83
2021/04/02 00:50:22;;;;;;;3.73;3.30;;;;;;;;;;5087410;28;20198;-83
2021/04/02 00:52:48;;;;;;;3.80;3.50;;;;;;;;;;5071059;28;20192;-83
2021/04/02 00:55:14;;;;;;;3.70;3.40;;;;;;;;;;5080516;28;20193;-83
2021/04/02 00:57:39;;;;;;;3.43;3.13;;;;;;;;;;5082605;28;20599;-84
2021/04/02 01:00:09;;;;;;;3.80;3.50;;;;;;;;;;5088732;28;20184;-82
2021/04/02 01:02:34;;;;;;;3.83;3.40;;;;;;;;;;5086457;28;20818;-83
2021/04/02 01:05:05;;;;;;;3.30;3.00;;;;;;;;;;5091122;28;20195;-83
2021/04/02 01:07:31;;;;;;;3.60;3.30;;;;;;;;;;5086183;28;20196;-83
2021/04/02 01:09:56;;;;;;;3.40;3.10;;;;;;;;;;5086770;28;20185;-83
2021/04/02 01:12:21;;;;;;;4.63;3.20;;;;;;;;;;5085856;28;20201;-83
2021/04/02 01:14:46;;;;;;;3.37;3.07;;;;;;;;;;5087973;28;20193;-83
2021/04/02 01:17:12;;;;;;;3.93;3.20;;;;;;;;;;5085110;28;20208;-83
2021/04/02 01:19:46;;;;;;;3.53;2.97;;;;;;;;;;5071038;28;20212;-83
2021/04/02 01:22:17;;;;;;;3.50;3.20;;;;;;;;;;5083293;28;20272;-83
2021/04/02 01:25:16;;;;;;;3.10;2.80;;;;;;;;;;5089089;28;20188;-84
2021/04/02 01:28:15;;;;;;;3.77;3.47;;;;;;;;;;5082007;28;20209;-84
2021/04/02 01:30:41;;;;;;;3.30;3.00;;;;;;;;;;5089287;28;20728;-83
2021/04/02 01:33:08;;;;;;;3.83;3.53;;;;;;;;;;5083226;28;20917;-83
2021/04/02 01:35:36;;;;;;;3.30;3.00;;;;;;;;;;5085415;28;20192;-83
2021/04/02 01:38:10;;;;;;;4.10;3.40;;;;;;;;;;5088302;28;20664;-83
2021/04/02 01:40:41;;;;;;;3.43;3.10;;;;;;;;;;5088697;28;20252;-83
2021/04/02 01:43:10;;;;;;;3.37;3.07;;;;;;;;;;5063092;28;20196;-83
2021/04/02 01:45:36;;;;;;;3.70;3.40;;;;;;;;;;5084364;28;20199;-83
2021/04/02 01:48:02;;;;;;;3.60;3.30;;;;;;;;;;5083629;28;20200;-83
2021/04/02 01:50:28;;;;;;;3.40;3.10;;;;;;;;;;5085947;28;20192;-83
2021/04/02 01:52:56;;;;;;;3.20;2.90;;;;;;;;;;5086207;28;20188;-84
2021/04/02 01:55:24;;;;;;;3.10;2.90;;;;;;;;;;5083000;28;20184;-83
2021/04/02 01:57:50;;;;;;;3.80;3.27;;;;;;;;;;5086271;28;20215;-83
2021/04/02 02:00:38;;;;;;;3.80;3.13;;;;;;;;;;5089749;28;20322;-83
2021/04/02 02:03:06;;;;;;;6.63;3.00;;;;;;;;;;5086466;28;20294;-82
2021/04/02 02:05:32;;;;;;;3.43;2.90;;;;;;;;;;5087555;28;20633;-83
2021/04/02 02:07:59;;;;;;;4.40;3.10;;;;;;;;;;5067887;28;20208;-83
2021/04/02 02:10:25;;;;;;;3.20;2.90;;;;;;;;;;5085946;28;20193;-83
2021/04/02 02:12:53;;;;;;;3.10;2.80;;;;;;;;;;5087044;28;20195;-83
2021/04/02 02:15:19;;;;;;;3.17;2.90;;;;;;;;;;5077452;28;20224;-83
2021/04/02 02:17:54;;;;;;;3.47;2.90;;;;;;;;;;5083542;28;20639;-83
2021/04/02 02:20:20;;;;;;;4.17;2.87;;;;;;;;;;5079857;28;20684;-83
2021/04/02 02:22:45;;;;;;;3.37;3.07;;;;;;;;;;5069810;28;20220;-83
2021/04/02 02:25:12;;;;;;;3.87;3.47;;;;;;;;;;5066098;28;20208;-84
2021/04/02 02:27:40;;;;;;;3.33;3.03;;;;;;;;;;5083906;28;20217;-83
2021/04/02 02:30:12;;;;;;;3.47;2.80;;;;;;;;;;5070842;28;20207;-82
2021/04/02 02:32:38;;;;;;;3.40;3.00;;;;;;;;;;5071522;28;20272;-83
2021/04/02 02:35:06;;;;;;;3.20;2.90;;;;;;;;;;5085700;28;20211;-83
2021/04/02 02:37:33;;;;;;;3.20;2.90;;;;;;;;;;5086632;28;20300;-83
2021/04/02 02:39:59;;;;;;;3.00;2.70;;;;;;;;;;5072510;28;20233;-83
2021/04/02 02:42:24;;;;;;;3.00;2.80;;;;;;;;;;5087003;28;20189;-83
2021/04/02 02:44:50;;;;;;;2.63;2.43;;;;;;;;;;5089785;28;20767;-83
2021/04/02 02:47:15;;;;;;;3.70;3.27;;;;;;;;;;5086592;28;20181;-82
2021/04/02 02:49:42;;;;;;;3.17;2.97;;;;;;;;;;5087070;28;20281;-84
2021/04/02 02:52:08;;;;;;;3.27;2.97;;;;;;;;;;5073022;28;20951;-83
2021/04/02 02:54:35;;;;;;;3.20;2.90;;;;;;;;;;5071288;28;20196;-83
2021/04/02 02:57:01;;;;;;;4.67;3.47;;;;;;;;;;5084994;28;20258;-84
2021/04/02 02:59:28;;;;;;;3.40;3.10;;;;;;;;;;5088009;28;20212;-83
2021/04/02 03:01:54;;;;;;;3.50;3.20;;;;;;;;;;5088924;28;20189;-82
2021/04/02 03:04:21;;;;;;;3.40;3.10;;;;;;;;;;5092040;28;20226;-84
2021/04/02 03:06:47;;;;;;;5.37;3.53;;;;;;;;;;5087583;28;20615;-84
2021/04/02 03:09:16;;;;;;;3.87;3.40;;;;;;;;;;5087254;28;20204;-83
2021/04/02 03:11:43;;;;;;;3.77;3.47;;;;;;;;;;5087159;28;20185;-83
2021/04/02 03:14:11;;;;;;;3.57;2.97;;;;;;;;;;5093894;28;20211;-83
2021/04/02 03:16:46;;;;;;;4.57;3.23;;;;;;;;;;5088859;28;20216;-83
2021/04/02 03:19:14;;;;;;;3.60;3.30;;;;;;;;;;5083404;28;20219;-83
2021/04/02 03:21:39;;;;;;;3.43;3.13;;;;;;;;;;5088708;28;20227;-83
2021/04/02 03:24:07;;;;;;;3.50;3.20;;;;;;;;;;5093146;28;20181;-83
2021/04/02 03:26:35;;;;;;;3.03;2.73;;;;;;;;;;5091117;28;20199;-83
2021/04/02 03:29:02;;;;;;;4.00;3.23;;;;;;;;;;5083935;28;20275;-83
2021/04/02 03:31:28;;;;;;;3.90;3.20;;;;;;;;;;5091950;28;20276;-82
2021/04/02 03:33:55;;;;;;;3.93;3.20;;;;;;;;;;5092879;28;20199;-83
2021/04/02 03:36:24;;;;;;;4.83;3.70;;;;;;;;;;5090269;28;20191;-83
2021/04/02 03:38:50;;;;;;;3.60;3.30;;;;;;;;;;5086444;28;20219;-84
2021/04/02 03:41:22;;;;;;;3.53;3.23;;;;;;;;;;5090252;28;20536;-83
2021/04/02 03:43:49;;;;;;;3.40;3.10;;;;;;;;;;5072111;28;20181;-82
2021/04/02 03:46:17;;;;;;;4.33;3.60;;;;;;;;;;5069069;28;20199;-82
2021/04/02 03:48:44;;;;;;;3.70;3.40;;;;;;;;;;5085727;28;20734;-84
2021/04/02 03:51:17;;;;;;;3.80;3.50;;;;;;;;;;5084695;28;20200;-83
2021/04/02 03:53:46;;;;;;;3.70;3.40;;;;;;;;;;5069362;28;20773;-83
2021/04/02 03:56:16;;;;;;;3.87;3.53;;;;;;;;;;5085930;28;20276;-84
2021/04/02 03:58:45;;;;;;;4.13;3.73;;;;;;;;;;5074443;28;20212;-85
2021/04/02 04:01:13;;;;;;;3.83;3.50;;;;;;;;;;5094405;28;20211;-84
2021/04/02 04:03:41;;;;;;;3.70;3.33;;;;;;;;;;5091671;28;20267;-84
2021/04/02 04:06:10;;;;;;;4.23;3.60;;;;;;;;;;5094001;28;20188;-85
2021/04/02 04:08:38;;;;;;;3.93;3.53;;;;;;;;;;5107576;28;20193;-83
2021/04/02 04:11:04;;;;;;;3.60;3.30;;;;;;;;;;5082748;28;20253;-83
2021/04/02 04:13:33;;;;;;;3.73;3.43;;;;;;;;;;5091638;28;20916;-85
2021/04/02 04:15:59;;;;;;;4.33;3.30;;;;;;;;;;5081107;28;20189;-83
2021/04/02 04:18:27;;;;;;;3.80;3.50;;;;;;;;;;5091219;28;20212;-84
2021/04/02 04:20:57;;;;;;;4.10;3.70;;;;;;;;;;5091244;28;20216;-82
2021/04/02 04:23:23;;;;;;;3.73;3.43;;;;;;;;;;5088701;28;20189;-83
2021/04/02 04:25:53;;;;;;;3.47;3.10;;;;;;;;;;5086040;28;20553;-83
2021/04/02 04:28:20;;;;;;;3.07;2.77;;;;;;;;;;5077186;28;20263;-85
2021/04/02 04:30:48;;;;;;;3.23;2.93;;;;;;;;;;5087690;28;20186;-83
2021/04/02 04:33:14;;;;;;;2.80;2.60;;;;;;;;;;5087764;28;20283;-83
2021/04/02 04:35:39;;;;;;;2.83;2.57;;;;;;;;;;5080788;28;20197;-84
2021/04/02 04:38:10;;;;;;;2.80;2.60;;;;;;;;;;5084433;28;20218;-84
2021/04/02 04:40:36;;;;;;;2.60;2.40;;;;;;;;;;5088136;28;20284;-84
2021/04/02 04:43:04;;;;;;;2.90;2.70;;;;;;;;;;5090507;28;20851;-84
2021/04/02 04:45:30;;;;;;;2.80;2.60;;;;;;;;;;5086894;28;20253;-84
2021/04/02 04:47:55;;;;;;;3.03;2.73;;;;;;;;;;5088359;28;20703;-84
2021/04/02 04:50:21;;;;;;;3.00;2.80;;;;;;;;;;5086787;28;20280;-85
2021/04/02 04:52:55;;;;;;;3.53;2.60;;;;;;;;;;5089504;28;20192;-83
2021/04/02 04:55:22;;;;;;;2.87;2.17;;;;;;;;;;5089226;28;20918;-84
2021/04/02 04:57:49;;;;;;;2.40;2.20;;;;;;;;;;5086687;28;20213;-83
2021/04/02 05:00:17;;;;;;;2.50;2.23;;;;;;;;;;5087495;28;20870;-83
2021/04/02 05:02:45;;;;;;;2.73;2.37;;;;;;;;;;5089710;28;20263;-83
2021/04/02 05:05:19;;;;;;;2.40;2.20;;;;;;;;;;5084944;28;20204;-82
2021/04/02 05:07:46;;;;;;;3.83;1.80;;;;;;;;;;5084946;28;20215;-83
2021/04/02 05:10:12;;;;;;;1.70;1.60;;;;;;;;;;5088993;28;20331;-84
2021/04/02 05:12:38;;;;;;;2.10;1.90;;;;;;;;;;5088250;28;20251;-84
2021/04/02 05:15:05;;;;;;;2.33;1.70;;;;;;;;;;5086471;28;20188;-83
2021/04/02 05:17:30;;;;;;;1.93;1.77;;;;;;;;;;5084611;28;20213;-85
2021/04/02 05:19:56;;;;;;;1.33;1.23;;;;;;;;;;5083101;28;20235;-83
2021/04/02 05:22:22;;;;;;;1.37;1.27;;;;;;;;;;5091398;28;20603;-83
2021/04/02 05:24:47;;;;;;;1.80;1.60;;;;;;;;;;5090286;28;20193;-84
2021/04/02 05:27:12;;;;;;;1.70;1.60;;;;;;;;;;5069483;28;20189;-84
2021/04/02 05:29:37;;;;;;;1.80;1.70;;;;;;;;;;5088742;28;20204;-83
2021/04/02 05:32:03;;;;;;;2.17;1.97;;;;;;;;;;5090403;28;20188;-83
2021/04/02 05:34:28;;;;;;;2.63;2.33;;;;;;;;;;5089280;28;20284;-83
2021/04/02 05:36:53;;;;;;;3.17;2.30;;;;;;;;;;5066446;28;20244;-82
2021/04/02 05:39:19;;;;;;;1.90;1.73;;;;;;;;;;5089932;28;20216;-84
2021/04/02 05:41:50;;;;;;;1.50;1.40;;;;;;;;;;5091563;28;20177;-83
2021/04/02 05:44:19;;;;;;;2.57;1.80;;;;;;;;;;5088238;28;20195;-83
2021/04/02 05:46:47;;;;;;;4.77;3.53;;;;;;;;;;5082706;28;20203;-83
2021/04/02 05:49:15;;;;;;;4.20;3.57;;;;;;;;;;5085419;28;20209;-84
2021/04/02 05:51:41;;;;;;;4.67;3.90;;;;;;;;;;5070174;28;20204;-83
2021/04/02 05:54:10;;;;;;;4.03;3.60;;;;;;;;;;5088685;28;20392;-83
2021/04/02 05:56:36;;;;;;;6.10;4.67;;;;;;;;;;5079084;28;20197;-82
2021/04/02 05:59:02;;;;;;;5.07;4.53;;;;;;;;;;5086183;28;20208;-83
2021/04/02 06:01:28;;;;;;;4.93;4.47;;;;;;;;;;5087605;28;20188;-81
2021/04/02 06:03:54;;;;;;;5.47;4.97;;;;;;;;;;5087781;28;20193;-84
2021/04/02 06:06:20;;;;;;;5.00;4.40;;;;;;;;;;5077822;28;20196;-84
2021/04/02 06:08:46;;;;;;;5.10;4.60;;;;;;;;;;5057856;28;20235;-81
2021/04/02 06:11:13;;;;;;;5.27;4.63;;;;;;;;;;5075009;28;20192;-82
2021/04/02 06:13:38;;;;;;;5.20;4.70;;;;;;;;;;5079722;28;20600;-83
2021/04/02 06:16:04;;;;;;;6.47;5.80;;;;;;;;;;5086960;28;20280;-83
2021/04/02 06:18:30;;;;;;;5.57;4.97;;;;;;;;;;5086208;28;20221;-82
2021/04/02 06:20:58;;;;;;;5.20;4.50;;;;;;;;;;5075413;28;20185;-83
2021/04/02 06:23:27;;;;;;;6.20;4.60;;;;;;;;;;5082820;28;20276;-81
2021/04/02 06:25:58;;;;;;;4.80;4.30;;;;;;;;;;5084258;28;20184;-84
2021/04/02 06:28:28;;;;;;;6.27;4.80;;;;;;;;;;5086003;28;20227;-81
2021/04/02 06:31:14;;;;;;;5.17;4.67;;;;;;;;;;5082438;28;20226;-82
2021/04/02 06:33:43;;;;;;;3.10;2.80;;;;;;;;;;5087467;28;20681;-81
2021/04/02 06:36:17;;;;;;;2.95;2.75;;;;;;;;;;5070141;28;20195;-81
2021/04/02 06:38:46;;;;;;;3.10;2.80;;;;;;;;;;5065484;28;20213;-80
2021/04/02 06:41:12;;;;;;;2.45;2.25;;;;;;;;;;5086922;28;20206;-80
2021/04/02 06:43:44;;;;;;;2.20;2.10;;;;;;;;;;5085327;28;20214;-82
2021/04/02 06:46:13;;;;;;;2.13;2.00;;;;;;;;;;5080922;28;20181;-81
2021/04/02 06:48:39;;;;;;;2.22;2.10;;;;;;;;;;5080741;28;20541;-81
2021/04/02 06:51:14;;;;;;;2.15;1.95;;;;;;;;;;5087370;28;20196;-80
2021/04/02 06:53:42;;;;;;;2.50;2.30;;;;;;;;;;5069631;28;20176;-81
2021/04/02 06:56:10;;;;;;;2.03;1.92;;;;;;;;;;5082991;28;20207;-81
2021/04/02 06:58:37;;;;;;;2.60;2.40;;;;;;;;;;5078931;28;20284;-81
2021/04/02 07:01:04;;;;;;;2.70;1.80;;;;;;;;;;5066143;28;20685;-81
2021/04/02 07:03:34;;;;;;;2.07;1.90;;;;;;;;;;5084175;28;20209;-80
2021/04/02 07:06:04;;;;;;;1.77;1.65;;;;;;;;;;5078383;28;20191;-82
2021/04/02 07:08:32;;;;;;;2.23;1.97;;;;;;;;;;5085943;28;20200;-81
2021/04/02 07:10:58;;;;;;;1.87;1.77;;;;;;;;;;5080538;28;20209;-81
2021/04/02 07:13:35;;;;;;;2.10;1.90;;;;;;;;;;5082489;28;20784;-81
2021/04/02 07:16:02;;;;;;;3.30;3.10;;;;;;;;;;5067794;28;20237;-82
2021/04/02 07:18:28;;;;;;;1.97;1.80;;;;;;;;;;5086732;28;20208;-79
2021/04/02 07:20:55;;;;;;;2.17;1.97;;;;;;;;;;5087910;28;20192;-83
2021/04/02 07:23:21;;;;;;;2.40;2.20;;;;;;;;;;5088352;28;20207;-81
2021/04/02 07:25:46;;;;;;;2.70;2.50;;;;;;;;;;5087259;28;20181;-80
2021/04/02 07:28:11;;;;;;;2.90;2.70;;;;;;;;;;5084824;28;20207;-80
2021/04/02 07:30:38;;;;;;;2.53;2.33;;;;;;;;;;5091836;28;20200;-80
2021/04/02 07:33:07;;;;;;;2.80;2.47;;;;;;;;;;5092914;28;20181;-79
2021/04/02 07:35:33;;;;;;;3.30;2.57;;;;;;;;;;5101619;28;20215;-80
2021/04/02 07:37:59;;;;;;;2.70;2.50;;;;;;;;;;5089371;28;20925;-81
2021/04/02 07:40:30;;;;;;;2.97;2.50;;;;;;;;;;5085421;28;20269;-80
2021/04/02 07:42:58;;;;;;;2.83;2.30;;;;;;;;;;5075570;28;20185;-78
2021/04/02 07:45:26;;;;;;;3.20;2.60;;;;;;;;;;5087668;28;20188;-79
2021/04/02 07:47:56;;;;;;;3.50;2.77;;;;;;;;;;5083312;28;20204;-79
2021/04/02 07:50:33;;;;;;;3.57;3.27;;;;;;;;;;5090052;28;20520;-81
2021/04/02 07:52:58;;;;;;;4.13;2.60;;;;;;;;;;5096152;28;20185;-78
2021/04/02 07:55:27;;;;;;;3.67;2.97;;;;;;;;;;5087995;28;20195;-80
